createdAt,value
2018-10-05T00:00:32.674Z,101370.51
2018-10-05T00:03:03.437Z,101338.19
2018-10-05T00:05:34.749Z,101363.53
2018-10-05T00:08:05.475Z,101361.22
2018-10-05T00:10:36.981Z,101355.92
2018-10-05T00:13:07.602Z,101353.14
2018-10-05T00:15:38.609Z,101353.00
2018-10-05T00:18:09.356Z,101350.36
2018-10-05T00:20:40.851Z,101353.00
2018-10-05T00:23:11.586Z,101357.33
2018-10-05T00:25:42.536Z,101362.13
2018-10-05T00:28:13.650Z,101354.78
2018-10-05T00:30:45.084Z,101351.90
2018-10-05T00:33:15.601Z,101350.67
2018-10-05T00:35:47.373Z,101343.24
2018-10-05T00:38:17.573Z,101347.16
2018-10-05T00:40:48.556Z,101339.00
2018-10-05T00:43:19.547Z,101339.68
2018-10-05T00:45:50.918Z,101335.58
2018-10-05T00:48:21.542Z,101340.50
2018-10-05T00:50:52.445Z,101346.88
2018-10-05T00:53:23.648Z,101346.23
2018-10-05T00:55:54.646Z,101338.77
2018-10-05T00:58:25.400Z,101341.98
2018-10-05T01:00:56.848Z,101345.42
2018-10-05T01:03:26.610Z,101339.55
2018-10-05T01:05:57.608Z,101346.84
2018-10-05T01:08:28.377Z,101343.59
2018-10-05T01:10:59.761Z,101307.57
2018-10-05T01:13:30.594Z,101340.46
2018-10-05T01:16:01.955Z,101331.51
2018-10-05T01:18:31.680Z,101334.86
2018-10-05T01:21:02.618Z,101259.31
2018-10-05T01:23:33.316Z,101333.69
2018-10-05T01:26:04.838Z,101328.99
2018-10-05T01:28:35.501Z,101333.91
2018-10-05T01:31:06.405Z,101335.59
2018-10-05T01:33:37.608Z,101337.14
2018-10-05T01:36:08.500Z,101332.08
2018-10-05T01:38:39.482Z,101335.08
2018-10-05T01:41:14.601Z,101337.79
2018-10-05T01:45:08.649Z,101339.05
2018-10-05T01:47:38.862Z,101337.43
2018-10-05T01:50:08.862Z,101340.66
2018-10-05T01:52:38.793Z,101341.15
2018-10-05T01:55:08.616Z,101336.91
2018-10-05T01:57:38.697Z,101333.91
2018-10-05T02:00:08.826Z,101337.98
2018-10-05T02:02:38.690Z,101334.70
2018-10-05T02:05:09.148Z,101338.78
2018-10-05T02:07:38.869Z,101334.30
2018-10-05T02:10:08.689Z,101329.82
2018-10-05T02:12:38.769Z,101340.10
2018-10-05T02:15:09.236Z,101342.09
2018-10-05T02:17:39.052Z,101340.89
2018-10-05T02:20:08.832Z,101339.78
2018-10-05T02:22:38.657Z,101345.16
2018-10-05T02:25:08.735Z,101334.44
2018-10-05T02:27:38.759Z,101333.83
2018-10-05T02:30:09.029Z,101331.86
2018-10-05T02:32:38.934Z,101332.06
2018-10-05T02:35:08.753Z,101333.59
2018-10-05T02:37:38.680Z,101328.91
2018-10-05T02:40:08.698Z,101325.52
2018-10-05T02:42:38.826Z,101303.91
2018-10-05T02:45:08.694Z,101319.44
2018-10-05T02:47:38.705Z,101314.46
2018-10-05T02:50:08.718Z,101318.63
2018-10-05T02:52:38.569Z,101314.51
2018-10-05T02:55:08.719Z,101308.13
2018-10-05T02:57:38.558Z,101311.34
2018-10-05T03:00:18.235Z,101308.08
2018-10-05T03:02:47.981Z,101308.29
2018-10-05T03:05:17.697Z,101307.64
2018-10-05T03:07:47.717Z,101309.16
2018-10-05T03:10:17.603Z,101308.05
2018-10-05T03:12:47.680Z,101308.74
2018-10-05T03:15:25.148Z,101316.36
2018-10-05T03:17:55.063Z,101312.98
2018-10-05T03:20:24.802Z,101310.55
2018-10-05T03:22:54.644Z,101295.27
2018-10-05T03:25:24.621Z,101313.69
2018-10-05T03:27:54.587Z,101314.63
2018-10-05T03:30:24.705Z,101306.47
2018-10-05T03:32:54.572Z,101309.31
2018-10-05T03:35:24.697Z,101283.20
2018-10-05T03:37:54.533Z,101300.86
2018-10-05T03:40:24.654Z,101290.04
2018-10-05T03:42:54.711Z,101284.89
2018-10-05T03:45:24.673Z,101292.50
2018-10-05T03:47:54.729Z,101290.19
2018-10-05T03:50:24.532Z,101293.77
2018-10-05T03:52:54.644Z,101290.39
2018-10-05T03:55:24.733Z,101290.59
2018-10-05T03:57:54.758Z,101285.52
2018-10-05T04:00:24.683Z,101281.41
2018-10-05T04:02:54.557Z,101281.98
2018-10-05T04:05:24.632Z,101284.69
2018-10-05T04:07:54.733Z,101290.08
2018-10-05T04:10:24.852Z,101282.00
2018-10-05T04:12:54.803Z,101289.04
2018-10-05T04:15:24.564Z,101283.14
2018-10-05T04:17:54.648Z,101283.72
2018-10-05T04:20:24.729Z,101280.34
2018-10-05T04:22:54.618Z,101282.23
2018-10-05T04:25:24.736Z,101283.73
2018-10-05T04:27:54.578Z,101275.09
2018-10-05T04:30:24.710Z,101281.88
2018-10-05T04:32:54.601Z,101277.18
2018-10-05T04:35:24.669Z,101282.64
2018-10-05T04:37:54.620Z,101284.52
2018-10-05T04:40:24.636Z,101292.05
2018-10-05T04:42:54.656Z,101295.63
2018-10-05T04:45:24.853Z,101289.69
2018-10-05T04:47:54.729Z,101292.89
2018-10-05T04:50:26.321Z,101292.62
2018-10-05T04:52:56.024Z,101290.94
2018-10-05T04:55:25.747Z,101299.78
2018-10-05T04:57:55.681Z,101288.11
2018-10-05T05:00:25.526Z,101299.50
2018-10-05T05:02:55.825Z,101298.63
2018-10-05T05:05:25.642Z,101309.91
2018-10-05T05:07:55.572Z,101306.27
2018-10-05T05:10:25.717Z,101315.55
2018-10-05T05:12:55.563Z,101313.86
2018-10-05T05:15:25.709Z,101313.48
2018-10-05T05:17:55.554Z,101307.48
2018-10-05T05:20:25.661Z,101316.69
2018-10-05T05:22:55.572Z,101315.86
2018-10-05T05:25:25.544Z,101310.11
2018-10-05T05:27:55.702Z,101317.17
2018-10-05T05:30:25.466Z,101315.37
2018-10-05T05:32:55.561Z,101310.48
2018-10-05T05:35:25.390Z,101309.46
2018-10-05T05:37:55.427Z,101310.67
2018-10-05T05:40:25.609Z,101315.36
2018-10-05T05:42:55.821Z,101319.49
2018-10-05T05:45:26.005Z,101319.78
2018-10-05T05:47:56.052Z,101322.52
2018-10-05T05:50:26.314Z,101323.84
2018-10-05T05:52:57.180Z,101329.36
2018-10-05T05:55:27.543Z,101311.69
2018-10-05T05:57:57.633Z,101326.81
2018-10-05T06:00:27.729Z,101324.83
2018-10-05T06:02:57.780Z,101329.53
2018-10-05T06:05:27.910Z,101322.50
2018-10-05T06:07:57.931Z,101328.48
2018-10-05T06:10:28.387Z,101328.93
2018-10-05T06:12:58.413Z,101334.29
2018-10-05T06:15:28.772Z,101330.52
2018-10-05T06:17:59.546Z,101333.33
2018-10-05T06:20:30.706Z,101330.67
2018-10-05T06:23:01.537Z,101342.70
2018-10-05T06:25:32.328Z,101339.17
2018-10-05T06:28:03.655Z,101332.50
2018-10-05T06:30:34.393Z,101345.05
2018-10-05T06:33:05.751Z,101338.02
2018-10-05T06:35:36.625Z,101337.95
2018-10-05T06:38:07.469Z,101338.08
2018-10-05T06:40:38.581Z,101341.53
2018-10-05T06:43:10.122Z,101345.80
2018-10-05T06:45:40.681Z,101347.89
2018-10-05T06:48:11.484Z,101354.97
2018-10-05T06:50:42.257Z,101352.56
2018-10-05T06:53:13.766Z,101348.23
2018-10-05T06:55:44.554Z,101349.80
2018-10-05T06:58:15.592Z,101345.28
2018-10-05T07:00:46.385Z,101349.70
2018-10-05T07:03:17.713Z,101342.73
2018-10-05T07:05:48.489Z,101322.41
2018-10-05T07:08:19.723Z,101334.25
2018-10-05T07:10:50.494Z,101340.69
2018-10-05T07:13:21.368Z,101339.92
2018-10-05T07:15:53.625Z,101339.51
2018-10-05T07:18:23.641Z,101338.23
2018-10-05T07:20:53.401Z,101338.52
2018-10-05T07:23:24.654Z,101340.14
2018-10-05T07:25:55.436Z,101342.25
2018-10-05T07:28:26.908Z,101340.09
2018-10-05T07:30:57.717Z,101326.71
2018-10-05T07:33:28.832Z,101341.42
2018-10-05T07:35:59.748Z,101331.90
2018-10-05T07:38:30.749Z,101309.73
2018-10-05T07:41:01.534Z,101335.00
2018-10-05T07:43:32.426Z,101332.91
2018-10-05T07:46:03.756Z,101327.42
2018-10-05T07:48:34.822Z,101332.00
2018-10-05T07:51:05.592Z,101326.41
2018-10-05T07:53:36.420Z,101324.16
2018-10-05T07:56:07.932Z,101321.42
2018-10-05T07:58:38.818Z,101320.63
2018-10-05T08:01:09.576Z,101293.73
2018-10-05T08:03:40.581Z,101318.63
2018-10-05T08:06:11.581Z,101315.52
2018-10-05T08:08:42.710Z,101321.72
2018-10-05T08:11:13.472Z,101290.45
2018-10-05T08:13:44.725Z,101314.16
2018-10-05T08:16:15.433Z,101295.42
2018-10-05T08:18:46.661Z,101303.34
2018-10-05T08:21:17.368Z,101298.82
2018-10-05T08:23:48.729Z,101301.98
2018-10-05T08:26:19.958Z,101294.11
2018-10-05T08:28:51.045Z,101299.84
2018-10-05T08:31:21.674Z,101301.30
2018-10-05T08:33:52.940Z,101303.02
2018-10-05T08:36:23.829Z,101301.44
2018-10-05T08:38:54.998Z,101197.11
2018-10-05T08:41:25.784Z,101293.75
2018-10-05T08:43:56.891Z,101287.38
2018-10-05T08:46:27.644Z,101279.86
2018-10-05T08:48:58.671Z,101286.36
2018-10-05T08:51:29.597Z,101276.88
2018-10-05T08:54:01.063Z,101278.06
2018-10-05T08:56:32.917Z,101279.67
2018-10-05T08:59:02.845Z,101265.95
2018-10-05T09:01:33.465Z,101271.25
2018-10-05T09:04:04.905Z,101272.22
2018-10-05T09:06:35.516Z,101265.91
2018-10-05T09:09:08.416Z,101267.41
2018-10-05T09:11:38.170Z,101269.47
2018-10-05T09:14:09.032Z,101261.80
2018-10-05T09:16:39.590Z,101258.05
2018-10-05T09:19:10.401Z,101257.44
2018-10-05T09:21:41.669Z,101246.08
2018-10-05T09:24:12.478Z,101222.32
2018-10-05T09:26:43.438Z,101232.23
2018-10-05T09:29:14.653Z,101227.28
2018-10-05T09:31:45.568Z,101225.77
2018-10-05T09:34:16.288Z,101227.62
2018-10-05T09:36:47.741Z,101222.27
2018-10-05T09:39:18.528Z,101211.05
2018-10-05T09:41:49.854Z,101217.28
2018-10-05T09:44:20.609Z,101216.66
2018-10-05T09:46:51.611Z,101217.48
2018-10-05T09:49:22.374Z,101216.66
2018-10-05T09:51:53.809Z,101206.29
2018-10-05T09:54:24.537Z,101210.30
2018-10-05T09:56:55.424Z,101206.28
2018-10-05T09:59:26.630Z,101201.08
2018-10-05T10:02:04.371Z,101183.84
2018-10-05T10:04:34.106Z,101194.52
2018-10-05T10:07:04.496Z,101193.16
2018-10-05T10:09:34.229Z,101187.11
2018-10-05T10:12:04.500Z,101176.37
2018-10-05T10:14:34.310Z,101179.23
2018-10-05T10:17:04.025Z,101172.50
2018-10-05T10:19:34.532Z,101172.45
2018-10-05T10:22:04.688Z,101160.83
2018-10-05T10:24:35.860Z,101164.27
2018-10-05T10:27:06.499Z,101147.94
2018-10-05T10:29:37.396Z,101153.33
2018-10-05T10:32:08.665Z,101150.56
2018-10-05T10:34:39.811Z,101143.33
2018-10-05T10:37:10.537Z,101144.98
2018-10-05T10:39:41.391Z,101145.33
2018-10-05T10:42:12.605Z,101132.00
2018-10-05T10:44:43.418Z,101138.95
2018-10-05T10:47:14.813Z,101135.72
2018-10-05T10:49:45.704Z,101134.61
2018-10-05T10:52:16.439Z,101123.82
2018-10-05T10:54:47.749Z,101119.98
2018-10-05T10:57:18.468Z,101113.48
2018-10-05T10:59:49.733Z,101120.59
2018-10-05T11:02:20.449Z,101124.59
2018-10-05T11:04:51.955Z,101123.11
2018-10-05T11:07:22.553Z,101117.73
2018-10-05T11:09:53.376Z,101116.70
2018-10-05T11:12:24.626Z,101107.97
2018-10-05T11:14:55.608Z,101104.39
2018-10-05T11:17:26.300Z,101093.88
2018-10-05T11:19:57.646Z,101095.71
2018-10-05T11:22:28.353Z,101096.28
2018-10-05T11:24:59.828Z,101092.66
2018-10-05T11:27:30.561Z,101084.63
2018-10-05T11:30:01.363Z,101088.57
2018-10-05T11:32:32.561Z,101088.34
2018-10-05T11:35:03.396Z,101087.94
2018-10-05T11:37:34.308Z,101073.68
2018-10-05T11:40:05.720Z,101077.33
2018-10-05T11:42:36.442Z,101077.86
2018-10-05T11:45:07.849Z,101060.11
2018-10-05T11:47:38.581Z,101063.36
2018-10-05T11:50:09.780Z,101068.22
2018-10-05T11:52:40.500Z,101064.30
2018-10-05T11:55:11.654Z,101061.39
2018-10-05T11:57:41.397Z,101059.95
2018-10-05T12:00:12.862Z,101053.59
2018-10-05T12:02:43.737Z,101053.39
2018-10-05T12:05:18.568Z,101045.73
2018-10-05T12:07:49.289Z,101046.02
2018-10-05T12:10:19.149Z,101045.11
2018-10-05T12:12:49.316Z,101042.17
2018-10-05T12:15:19.373Z,101033.84
2018-10-05T12:17:49.730Z,101040.17
2018-10-05T12:20:20.873Z,101031.22
2018-10-05T12:22:51.576Z,101032.02
2018-10-05T12:25:22.557Z,101029.94
2018-10-05T12:27:53.442Z,101032.70
2018-10-05T12:30:24.426Z,101032.41
2018-10-05T12:32:55.821Z,101029.59
2018-10-05T12:35:26.933Z,101023.44
2018-10-05T12:37:57.497Z,101010.59
2018-10-05T12:40:28.861Z,101024.41
2018-10-05T12:42:59.578Z,101017.53
2018-10-05T12:45:30.458Z,101016.28
2018-10-05T12:48:01.341Z,101013.19
2018-10-05T12:50:32.714Z,101004.27
2018-10-05T12:53:03.652Z,101003.53
2018-10-05T12:55:34.781Z,100993.16
2018-10-05T12:58:04.588Z,100995.44
2018-10-05T13:00:35.588Z,100993.67
2018-10-05T13:03:06.318Z,100991.69
2018-10-05T13:05:37.654Z,100990.24
2018-10-05T13:08:08.445Z,100990.52
2018-10-05T13:10:40.058Z,100986.16
2018-10-05T13:13:10.521Z,100988.67
2018-10-05T13:15:41.424Z,100989.70
2018-10-05T13:18:12.473Z,100981.42
2018-10-05T13:20:43.428Z,100984.22
2018-10-05T13:23:14.455Z,100976.23
2018-10-05T13:25:45.644Z,100967.30
2018-10-05T13:28:16.408Z,100965.22
2018-10-05T13:30:47.840Z,100967.20
2018-10-05T13:33:19.151Z,100972.80
2018-10-05T13:35:49.797Z,100962.84
2018-10-05T13:38:20.787Z,100964.39
2018-10-05T13:40:51.738Z,100955.03
2018-10-05T13:43:22.469Z,100957.11
2018-10-05T13:45:53.969Z,100949.13
2018-10-05T13:48:24.746Z,100946.11
2018-10-05T13:50:55.761Z,100947.77
2018-10-05T13:53:26.519Z,100939.13
2018-10-05T13:55:57.805Z,100942.05
2018-10-05T13:58:28.511Z,100938.64
2018-10-05T14:01:00.373Z,100911.82
2018-10-05T14:03:30.320Z,100929.26
2018-10-05T14:06:01.751Z,100925.02
2018-10-05T14:08:32.658Z,100932.81
2018-10-05T14:11:03.771Z,100929.28
2018-10-05T14:13:34.731Z,100924.48
2018-10-05T14:16:05.813Z,100917.55
2018-10-05T14:18:36.729Z,100921.67
2018-10-05T14:21:07.714Z,100912.48
2018-10-05T14:23:39.441Z,100910.80
2018-10-05T14:26:09.590Z,100910.17
2018-10-05T14:28:40.368Z,100913.22
2018-10-05T14:31:12.036Z,100899.11
2018-10-05T14:33:43.365Z,100900.89
2018-10-05T14:36:14.192Z,100896.94
2018-10-05T14:38:45.782Z,100890.34
2018-10-05T14:41:16.955Z,100886.19
2018-10-05T14:43:47.230Z,100887.41
2018-10-05T14:46:17.938Z,100884.01
2018-10-05T14:48:49.017Z,100879.84
2018-10-05T14:51:19.727Z,100873.63
2018-10-05T14:53:50.495Z,100871.77
2018-10-05T14:56:21.432Z,100869.73
2018-10-05T14:58:52.763Z,100869.39
2018-10-05T15:01:23.584Z,100865.20
2018-10-05T15:03:54.344Z,100861.44
2018-10-05T15:06:25.812Z,100862.74
2018-10-05T15:08:56.581Z,100856.28
2018-10-05T15:11:27.601Z,100861.30
2018-10-05T15:13:58.919Z,100860.13
2018-10-05T15:16:29.736Z,100856.02
2018-10-05T15:19:00.413Z,100858.28
2018-10-05T15:21:31.413Z,100859.47
2018-10-05T15:24:02.355Z,100854.80
2018-10-05T15:26:33.698Z,100841.27
2018-10-05T15:29:04.433Z,100842.57
2018-10-05T15:31:35.413Z,100839.50
2018-10-05T15:34:06.262Z,100838.64
2018-10-05T15:36:37.649Z,100828.34
2018-10-05T15:39:09.569Z,100828.16
2018-10-05T15:41:39.894Z,100833.92
2018-10-05T15:44:10.494Z,100834.50
2018-10-05T15:46:58.935Z,100836.57
2018-10-05T15:49:29.924Z,100832.83
2018-10-05T15:52:00.366Z,100823.27
2018-10-05T15:54:30.424Z,100834.17
2018-10-05T15:57:00.554Z,100829.79
2018-10-05T15:59:31.284Z,100830.04
2018-10-05T16:02:01.376Z,100823.52
2018-10-05T16:04:31.739Z,100819.73
2018-10-05T16:07:01.494Z,100815.03
2018-10-05T16:09:31.307Z,100814.52
2018-10-05T16:12:01.165Z,100812.06
2018-10-05T16:14:31.129Z,100807.95
2018-10-05T16:17:01.187Z,100804.94
2018-10-05T16:19:31.056Z,100804.39
2018-10-05T16:22:10.945Z,100806.34
2018-10-05T16:24:42.286Z,100812.48
2018-10-05T16:27:13.278Z,100808.22
2018-10-05T16:29:43.374Z,100807.58
2018-10-05T16:32:13.746Z,100810.19
2018-10-05T16:34:44.167Z,100814.91
2018-10-05T16:37:14.203Z,100814.50
2018-10-05T16:39:44.324Z,100818.33
2018-10-05T16:42:14.106Z,100816.92
2018-10-05T16:44:44.720Z,100818.78
2018-10-05T16:47:14.573Z,100815.80
2018-10-05T16:49:44.634Z,100815.80
2018-10-05T16:52:14.629Z,100815.98
2018-10-05T16:54:44.372Z,100815.51
2018-10-05T16:57:14.144Z,100815.61
2018-10-05T16:59:44.178Z,100824.34
2018-10-05T17:02:14.417Z,100822.72
2018-10-05T17:04:44.285Z,100822.19
2018-10-05T17:07:14.033Z,100816.13
2018-10-05T17:09:44.585Z,100819.83
2018-10-05T17:12:15.397Z,100818.20
2018-10-05T17:14:46.569Z,100817.63
2018-10-05T17:17:17.422Z,100815.98
2018-10-05T17:19:48.398Z,100816.31
2018-10-05T17:22:19.860Z,100809.00
2018-10-05T17:24:50.507Z,100806.09
2018-10-05T17:27:21.371Z,100811.31
2018-10-05T17:29:52.719Z,100812.58
2018-10-05T17:32:23.710Z,100786.78
2018-10-05T17:34:54.492Z,100800.69
2018-10-05T17:37:26.112Z,100808.29
2018-10-05T17:39:56.630Z,100805.64
2018-10-05T17:42:27.468Z,100808.08
2018-10-05T17:44:58.366Z,100808.92
2018-10-05T17:47:29.558Z,100808.80
2018-10-05T17:50:00.454Z,100800.27
2018-10-05T17:52:31.886Z,100802.81
2018-10-05T17:55:02.921Z,100801.30
2018-10-05T17:57:33.693Z,100800.48
2018-10-05T18:00:04.926Z,100796.82
2018-10-05T18:02:35.965Z,100798.17
2018-10-05T18:05:06.537Z,100792.20
2018-10-05T18:07:37.530Z,100795.72
2018-10-05T18:10:08.504Z,100794.52
2018-10-05T18:12:40.214Z,100793.21
2018-10-05T18:15:10.743Z,100785.20
2018-10-05T18:17:42.518Z,100783.73
2018-10-05T18:20:12.311Z,100784.42
2018-10-05T18:22:43.562Z,100783.27
2018-10-05T18:25:14.297Z,100784.79
2018-10-05T18:27:45.961Z,100785.97
2018-10-05T18:30:16.876Z,100783.30
2018-10-05T18:32:47.794Z,100600.22
2018-10-05T18:35:18.577Z,100774.31
2018-10-05T18:37:49.433Z,100775.66
2018-10-05T18:40:21.161Z,100777.00
2018-10-05T18:42:51.738Z,100778.99
2018-10-05T18:45:22.697Z,100783.84
2018-10-05T18:47:53.717Z,100784.37
2018-10-05T18:50:24.738Z,100786.86
2018-10-05T18:52:56.701Z,100786.37
2018-10-05T18:55:29.434Z,100774.84
2018-10-05T18:58:00.649Z,100788.69
2018-10-05T19:00:30.471Z,100776.34
2018-10-05T19:03:00.362Z,100778.69
2018-10-05T19:05:30.766Z,100780.80
2018-10-05T19:08:01.595Z,100721.52
2018-10-05T19:10:32.555Z,100770.97
2018-10-05T19:13:03.602Z,100772.22
2018-10-05T19:15:34.641Z,100775.93
2018-10-05T19:18:05.514Z,100751.27
2018-10-05T19:20:36.691Z,100766.28
2018-10-05T19:23:07.561Z,100759.64
2018-10-05T19:25:37.578Z,100761.80
2018-10-05T19:28:08.440Z,100764.12
2018-10-05T19:30:40.728Z,100764.95
2018-10-05T19:33:10.553Z,100761.20
2018-10-05T19:35:41.436Z,100758.81
2018-10-05T19:38:12.828Z,100761.92
2018-10-05T19:40:43.890Z,100745.64
2018-10-05T19:43:14.937Z,100753.00
2018-10-05T19:45:45.901Z,100752.41
2018-10-05T19:48:16.606Z,100736.23
2018-10-05T19:50:47.672Z,100749.69
2018-10-05T19:53:18.674Z,100745.41
2018-10-05T19:55:49.764Z,100744.00
2018-10-05T19:58:20.602Z,100743.81
2018-10-05T20:00:51.650Z,100748.80
2018-10-05T20:03:22.457Z,100740.69
2018-10-05T20:05:54.112Z,100739.05
2018-10-05T20:08:24.725Z,100734.48
2018-10-05T20:10:56.170Z,100723.31
2018-10-05T20:13:27.559Z,100737.14
2018-10-05T20:15:57.526Z,100735.20
2018-10-05T20:18:28.920Z,100737.89
2018-10-05T20:20:59.945Z,100735.54
2018-10-05T20:23:30.656Z,100738.54
2018-10-05T20:26:01.530Z,100730.05
2018-10-05T20:28:32.373Z,100736.19
2018-10-05T20:31:04.354Z,100730.83
2018-10-05T20:33:34.601Z,100725.13
2018-10-05T20:36:05.781Z,100721.45
2018-10-05T20:38:36.583Z,100719.77
2018-10-05T20:41:07.627Z,100720.00
2018-10-05T20:43:38.508Z,100716.19
2018-10-05T20:46:09.610Z,100718.98
2018-10-05T20:48:40.473Z,100706.55
2018-10-05T20:51:11.539Z,100716.75
2018-10-05T20:53:42.354Z,100719.02
2018-10-05T20:56:13.807Z,100719.46
2018-10-05T20:58:44.557Z,100719.08
2018-10-05T21:01:15.456Z,100717.02
2018-10-05T21:03:46.633Z,100721.91
2018-10-05T21:06:17.427Z,100717.53
2018-10-05T21:08:48.661Z,100718.18
2018-10-05T21:11:19.533Z,100716.80
2018-10-05T21:13:51.364Z,100713.11
2018-10-05T21:16:21.679Z,100715.67
2018-10-05T21:18:52.518Z,100713.27
2018-10-05T21:21:23.510Z,100704.52
2018-10-05T21:23:54.472Z,100705.50
2018-10-05T21:26:25.645Z,100701.39
2018-10-05T21:28:56.649Z,100697.77
2018-10-05T21:31:27.692Z,100698.36
2018-10-05T21:33:58.571Z,100700.45
2018-10-05T21:36:30.490Z,100585.75
2018-10-05T21:39:00.324Z,100698.23
2018-10-05T21:41:32.170Z,100689.45
2018-10-05T21:44:02.723Z,100687.87
2018-10-05T21:46:33.762Z,100683.39
2018-10-05T21:49:06.008Z,100678.09
2018-10-05T21:51:36.136Z,100681.50
2018-10-05T21:54:06.629Z,100681.13
2018-10-05T21:56:37.494Z,100672.53
2018-10-05T21:59:08.723Z,100669.44
2018-10-05T22:01:39.669Z,100664.86
2018-10-05T22:04:10.541Z,100665.68
2018-10-05T22:06:41.453Z,100662.81
2018-10-05T22:09:12.154Z,100664.00
2018-10-05T22:11:42.934Z,100657.87
2018-10-05T22:14:13.648Z,100659.27
2018-10-05T22:16:44.606Z,100657.05
2018-10-05T22:19:15.382Z,100653.09
2018-10-05T22:21:46.822Z,100645.89
2018-10-05T22:24:18.585Z,100643.87
2018-10-05T22:26:48.717Z,100642.88
2018-10-05T22:29:19.737Z,100640.52
2018-10-05T22:31:50.632Z,100635.20
2018-10-05T22:34:21.398Z,100637.88
2018-10-05T22:36:52.705Z,100621.41
2018-10-05T22:39:23.425Z,100628.18
2018-10-05T22:41:55.007Z,100624.98
2018-10-05T22:44:25.593Z,100619.31
2018-10-05T22:46:56.985Z,100407.52
2018-10-05T22:49:27.539Z,100617.58
2018-10-05T22:51:59.122Z,100625.70
2018-10-05T22:54:29.740Z,100614.14
2018-10-05T22:57:00.673Z,100609.34
2018-10-05T22:59:31.426Z,100614.44
2018-10-05T23:02:02.705Z,100617.93
2018-10-05T23:04:32.486Z,100613.53
2018-10-05T23:07:03.388Z,100599.50
2018-10-05T23:09:34.692Z,100608.64
2018-10-05T23:12:05.634Z,100613.52
2018-10-05T23:14:36.533Z,100604.22
2018-10-05T23:17:06.889Z,100605.19
2018-10-05T23:19:37.865Z,100614.45
2018-10-05T23:22:09.125Z,100594.72
2018-10-05T23:24:39.649Z,100608.14
2018-10-05T23:27:10.578Z,100606.51
2018-10-05T23:29:41.414Z,100598.57
2018-10-05T23:32:12.774Z,100594.32
2018-10-05T23:34:43.546Z,100597.13
2018-10-05T23:37:14.417Z,100604.41
2018-10-05T23:39:45.722Z,100598.96
2018-10-05T23:42:16.628Z,100601.14
2018-10-05T23:44:47.417Z,100595.58
2018-10-05T23:47:18.788Z,100589.89
2018-10-05T23:49:49.557Z,100579.27
2018-10-05T23:52:56.229Z,100588.98
2018-10-05T23:55:25.984Z,100597.78
2018-10-05T23:57:55.928Z,100597.27
